ANA373 RJTT-RJFU
Flight info
| Callsign | ANA373 |
|---|---|
| Flight time | 1h 37m |
| Altitude | 30000 |
| Route | TIARA GUSRO Y20 KAMMY Y204 OHGIE |
| Aircraft | B737/M-SDE2E3FGHIRWXY/LB1 |
Departure
| Time | 2026-04-17 11:19 |
|---|---|
| Airport | Tokyo Haneda International Airport (RJTT) |
Arrival
| Time | 2026-04-17 12:56 |
|---|---|
| Airport | Nagasaki Airport (RJFU) |
| Time | Latitude | Longitude | Altitude | Speed | Heading |
|---|---|---|---|---|---|
| 2026-04-17 10:51 | 35.55605 | 139.78860 | 23 ft | 0 kts | 149° |
| 2026-04-17 11:10 | 35.55608 | 139.78858 | 23 ft | 3 kts | 149° |
| 2026-04-17 11:10 | 35.55631 | 139.78841 | 27 ft | 4 kts | 151° |
| 2026-04-17 11:10 | 35.55653 | 139.78826 | 26 ft | 4 kts | 145° |
| 2026-04-17 11:11 | 35.55668 | 139.78804 | 27 ft | 4 kts | 90° |
| 2026-04-17 11:11 | 35.55663 | 139.78778 | 26 ft | 1 kts | 62° |
| 2026-04-17 11:11 | 35.55661 | 139.78773 | 26 ft | 0 kts | 62° |
| 2026-04-17 11:14 | 35.55662 | 139.78777 | 26 ft | 2 kts | 62° |
| 2026-04-17 11:14 | 35.55673 | 139.78801 | 24 ft | 5 kts | 62° |
| 2026-04-17 11:15 | 35.55693 | 139.78846 | 24 ft | 6 kts | 60° |
| 2026-04-17 11:15 | 35.55715 | 139.78891 | 23 ft | 6 kts | 57° |
| 2026-04-17 11:15 | 35.55738 | 139.78935 | 22 ft | 7 kts | 58° |
| 2026-04-17 11:15 | 35.55781 | 139.78968 | 22 ft | 10 kts | 358° |
| 2026-04-17 11:16 | 35.55849 | 139.78925 | 23 ft | 12 kts | 330° |
| 2026-04-17 11:16 | 35.55918 | 139.78876 | 23 ft | 11 kts | 330° |
| 2026-04-17 11:16 | 35.55985 | 139.78828 | 22 ft | 11 kts | 330° |
| 2026-04-17 11:16 | 35.56051 | 139.78781 | 22 ft | 11 kts | 330° |
| 2026-04-17 11:17 | 35.56118 | 139.78734 | 24 ft | 11 kts | 330° |
| 2026-04-17 11:17 | 35.56184 | 139.78688 | 22 ft | 11 kts | 330° |
| 2026-04-17 11:17 | 35.56261 | 139.78634 | 24 ft | 13 kts | 330° |
| 2026-04-17 11:17 | 35.56340 | 139.78579 | 22 ft | 13 kts | 330° |
| 2026-04-17 11:18 | 35.56412 | 139.78554 | 22 ft | 11 kts | 26° |
| 2026-04-17 11:18 | 35.56466 | 139.78644 | 24 ft | 13 kts | 60° |
| 2026-04-17 11:18 | 35.56469 | 139.78740 | 24 ft | 12 kts | 131° |
| 2026-04-17 11:18 | 35.56391 | 139.78798 | 24 ft | 21 kts | 150° |
| 2026-04-17 11:19 | 35.56036 | 139.79049 | 24 ft | 97 kts | 150° |
| 2026-04-17 11:19 | 35.55265 | 139.79601 | 55 ft | 154 kts | 149° |
| 2026-04-17 11:19 | 35.54328 | 139.80277 | 763 ft | 155 kts | 148° |
| 2026-04-17 11:19 | 35.53412 | 139.80937 | 1632 ft | 153 kts | 149° |
| 2026-04-17 11:20 | 35.52489 | 139.81611 | 2406 ft | 159 kts | 149° |
| 2026-04-17 11:20 | 35.51442 | 139.82369 | 2775 ft | 193 kts | 150° |
| 2026-04-17 11:20 | 35.50182 | 139.83238 | 3061 ft | 223 kts | 153° |
| 2026-04-17 11:20 | 35.48597 | 139.83655 | 3378 ft | 252 kts | 184° |
| 2026-04-17 11:21 | 35.46947 | 139.82758 | 4135 ft | 267 kts | 223° |
| 2026-04-17 11:21 | 35.46036 | 139.80824 | 5191 ft | 270 kts | 251° |
| 2026-04-17 11:21 | 35.45522 | 139.78601 | 6216 ft | 273 kts | 252° |
| 2026-04-17 11:21 | 35.45115 | 139.76319 | 7180 ft | 278 kts | 268° |
| 2026-04-17 11:22 | 35.45532 | 139.73993 | 8106 ft | 286 kts | 295° |
| 2026-04-17 11:22 | 35.46654 | 139.71956 | 9045 ft | 290 kts | 299° |
| 2026-04-17 11:22 | 35.47479 | 139.69691 | 9946 ft | 292 kts | 287° |
| 2026-04-17 11:22 | 35.48181 | 139.67325 | 10714 ft | 301 kts | 287° |
| 2026-04-17 11:23 | 35.48947 | 139.64816 | 10969 ft | 328 kts | 288° |
| 2026-04-17 11:23 | 35.49800 | 139.62131 | 11443 ft | 344 kts | 289° |
| 2026-04-17 11:23 | 35.50700 | 139.59393 | 12291 ft | 346 kts | 289° |
| 2026-04-17 11:23 | 35.51616 | 139.56665 | 13297 ft | 345 kts | 289° |
| 2026-04-17 11:24 | 35.52539 | 139.53947 | 14274 ft | 345 kts | 288° |
| 2026-04-17 11:24 | 35.53471 | 139.51214 | 15085 ft | 349 kts | 288° |
| 2026-04-17 11:24 | 35.54416 | 139.48446 | 15888 ft | 353 kts | 288° |
| 2026-04-17 11:24 | 35.55370 | 139.45655 | 16715 ft | 357 kts | 288° |
| 2026-04-17 11:25 | 35.56336 | 139.42828 | 17525 ft | 361 kts | 288° |
| 2026-04-17 11:25 | 35.57311 | 139.39971 | 18332 ft | 364 kts | 288° |
| 2026-04-17 11:25 | 35.58295 | 139.37088 | 19063 ft | 367 kts | 287° |
| 2026-04-17 11:25 | 35.59283 | 139.34192 | 19856 ft | 367 kts | 287° |
| 2026-04-17 11:26 | 35.60269 | 139.31301 | 20655 ft | 367 kts | 287° |
| 2026-04-17 11:26 | 35.61256 | 139.28400 | 21392 ft | 369 kts | 287° |
| 2026-04-17 11:26 | 35.62249 | 139.25482 | 22094 ft | 371 kts | 287° |
| 2026-04-17 11:26 | 35.63243 | 139.22555 | 22782 ft | 372 kts | 286° |
| 2026-04-17 11:27 | 35.64243 | 139.19603 | 23439 ft | 375 kts | 286° |
| 2026-04-17 11:27 | 35.65193 | 139.16665 | 24083 ft | 373 kts | 282° |
| 2026-04-17 11:27 | 35.65797 | 139.13581 | 24629 ft | 370 kts | 275° |
| 2026-04-17 11:27 | 35.66088 | 139.10438 | 25141 ft | 370 kts | 268° |
| 2026-04-17 11:28 | 35.66028 | 139.07284 | 25629 ft | 370 kts | 264° |
| 2026-04-17 11:28 | 35.65878 | 139.04113 | 26120 ft | 373 kts | 264° |
| 2026-04-17 11:28 | 35.65713 | 139.00923 | 26643 ft | 375 kts | 264° |
| 2026-04-17 11:28 | 35.65549 | 138.97718 | 27137 ft | 377 kts | 264° |
| 2026-04-17 11:29 | 35.65390 | 138.94491 | 27621 ft | 379 kts | 264° |
| 2026-04-17 11:29 | 35.65234 | 138.91247 | 28091 ft | 381 kts | 264° |
| 2026-04-17 11:29 | 35.65082 | 138.87996 | 28618 ft | 380 kts | 265° |
| 2026-04-17 11:29 | 35.64934 | 138.84765 | 29229 ft | 377 kts | 265° |
| 2026-04-17 11:30 | 35.64786 | 138.81561 | 29881 ft | 375 kts | 265° |
| 2026-04-17 11:30 | 35.64636 | 138.78344 | 30249 ft | 379 kts | 265° |
| 2026-04-17 11:30 | 35.64328 | 138.71848 | 30236 ft | 379 kts | 265° |
| 2026-04-17 11:31 | 35.64021 | 138.65393 | 30238 ft | 378 kts | 265° |
| 2026-04-17 11:31 | 35.63689 | 138.58937 | 30226 ft | 378 kts | 264° |
| 2026-04-17 11:32 | 35.63349 | 138.52483 | 30222 ft | 378 kts | 264° |
| 2026-04-17 11:32 | 35.63008 | 138.46031 | 30217 ft | 378 kts | 264° |
| 2026-04-17 11:33 | 35.62670 | 138.39600 | 30215 ft | 375 kts | 265° |
| 2026-04-17 11:33 | 35.62325 | 138.33203 | 30192 ft | 376 kts | 264° |
| 2026-04-17 11:34 | 35.61977 | 138.26790 | 30227 ft | 376 kts | 264° |
| 2026-04-17 11:34 | 35.61627 | 138.20395 | 30183 ft | 378 kts | 264° |
| 2026-04-17 11:35 | 35.61267 | 138.13931 | 30175 ft | 379 kts | 264° |
| 2026-04-17 11:35 | 35.60913 | 138.07492 | 30206 ft | 377 kts | 264° |
| 2026-04-17 11:36 | 35.60546 | 138.01056 | 30200 ft | 378 kts | 264° |
| 2026-04-17 11:36 | 35.60176 | 137.94618 | 30178 ft | 377 kts | 264° |
| 2026-04-17 11:37 | 35.59805 | 137.88192 | 30178 ft | 376 kts | 264° |
| 2026-04-17 11:37 | 35.59435 | 137.81802 | 30189 ft | 374 kts | 264° |
| 2026-04-17 11:38 | 35.59019 | 137.75421 | 30203 ft | 375 kts | 262° |
| 2026-04-17 11:38 | 35.58528 | 137.69038 | 30206 ft | 375 kts | 262° |
| 2026-04-17 11:39 | 35.58039 | 137.62650 | 30190 ft | 376 kts | 262° |
| 2026-04-17 11:39 | 35.57556 | 137.56266 | 30183 ft | 375 kts | 262° |
| 2026-04-17 11:40 | 35.56715 | 137.49983 | 30206 ft | 371 kts | 254° |
| 2026-04-17 11:40 | 35.55359 | 137.43861 | 30180 ft | 372 kts | 254° |
| 2026-04-17 11:41 | 35.54013 | 137.37742 | 30181 ft | 372 kts | 255° |
| 2026-04-17 11:41 | 35.52678 | 137.31619 | 30193 ft | 371 kts | 255° |
| 2026-04-17 11:42 | 35.51341 | 137.25491 | 30210 ft | 372 kts | 255° |
| 2026-04-17 11:42 | 35.49985 | 137.19397 | 30208 ft | 372 kts | 254° |
| 2026-04-17 11:43 | 35.48621 | 137.13258 | 30189 ft | 373 kts | 254° |
| 2026-04-17 11:43 | 35.47258 | 137.07105 | 30192 ft | 374 kts | 254° |
| 2026-04-17 11:44 | 35.45890 | 137.00956 | 30193 ft | 373 kts | 254° |
| 2026-04-17 11:44 | 35.44521 | 136.94837 | 30184 ft | 371 kts | 254° |
| 2026-04-17 11:45 | 35.43154 | 136.88740 | 30193 ft | 370 kts | 254° |
| 2026-04-17 11:45 | 35.41795 | 136.82695 | 30195 ft | 370 kts | 254° |
| 2026-04-17 11:46 | 35.40427 | 136.76622 | 30179 ft | 370 kts | 254° |
| 2026-04-17 11:46 | 35.39055 | 136.70547 | 30191 ft | 370 kts | 254° |
| 2026-04-17 11:47 | 35.37675 | 136.64453 | 30190 ft | 372 kts | 254° |
| 2026-04-17 11:47 | 35.36289 | 136.58346 | 30188 ft | 373 kts | 254° |
| 2026-04-17 11:48 | 35.35123 | 136.53223 | 30189 ft | 373 kts | 254° |
| 2026-04-17 11:48 | 35.33737 | 136.47138 | 30177 ft | 374 kts | 254° |
| 2026-04-17 11:49 | 35.32338 | 136.41019 | 30181 ft | 373 kts | 254° |
| 2026-04-17 11:49 | 35.30941 | 136.34912 | 30178 ft | 372 kts | 254° |
| 2026-04-17 11:50 | 35.29549 | 136.28827 | 30172 ft | 371 kts | 254° |
| 2026-04-17 11:50 | 35.28152 | 136.22740 | 30169 ft | 372 kts | 254° |
| 2026-04-17 11:51 | 35.26752 | 136.16650 | 30152 ft | 372 kts | 254° |
| 2026-04-17 11:51 | 35.25347 | 136.10565 | 30164 ft | 371 kts | 254° |
| 2026-04-17 11:52 | 35.23943 | 136.04491 | 30161 ft | 371 kts | 254° |
| 2026-04-17 11:52 | 35.22535 | 135.98416 | 30159 ft | 371 kts | 254° |
| 2026-04-17 11:53 | 35.21125 | 135.92348 | 30151 ft | 371 kts | 254° |
| 2026-04-17 11:53 | 35.19715 | 135.86291 | 30159 ft | 371 kts | 254° |
| 2026-04-17 11:54 | 35.18297 | 135.80204 | 30138 ft | 372 kts | 255° |
| 2026-04-17 11:54 | 35.17184 | 135.74035 | 30142 ft | 372 kts | 258° |
| 2026-04-17 11:55 | 35.16165 | 135.67851 | 30137 ft | 371 kts | 258° |
| 2026-04-17 11:55 | 35.15134 | 135.61670 | 30128 ft | 371 kts | 258° |
| 2026-04-17 11:56 | 35.14089 | 135.55492 | 30125 ft | 371 kts | 258° |
| 2026-04-17 11:56 | 35.13037 | 135.49311 | 30133 ft | 372 kts | 258° |
| 2026-04-17 11:57 | 35.11982 | 135.43138 | 30131 ft | 371 kts | 257° |
| 2026-04-17 11:57 | 35.10935 | 135.37025 | 30138 ft | 370 kts | 257° |
| 2026-04-17 11:58 | 35.09871 | 135.30852 | 30122 ft | 373 kts | 257° |
| 2026-04-17 11:58 | 35.08807 | 135.24648 | 30127 ft | 374 kts | 257° |
| 2026-04-17 11:59 | 35.07747 | 135.18439 | 30121 ft | 373 kts | 257° |
| 2026-04-17 11:59 | 35.06686 | 135.12242 | 30116 ft | 372 kts | 257° |
| 2026-04-17 12:00 | 35.05623 | 135.06067 | 30108 ft | 372 kts | 257° |
| 2026-04-17 12:00 | 35.04562 | 134.99894 | 30110 ft | 372 kts | 257° |
| 2026-04-17 12:01 | 35.03490 | 134.93702 | 30122 ft | 374 kts | 257° |
| 2026-04-17 12:01 | 35.02398 | 134.87477 | 30128 ft | 376 kts | 257° |
| 2026-04-17 12:02 | 35.01291 | 134.81237 | 30122 ft | 377 kts | 257° |
| 2026-04-17 12:02 | 35.00182 | 134.74998 | 30109 ft | 376 kts | 258° |
| 2026-04-17 12:03 | 34.99063 | 134.68780 | 30128 ft | 375 kts | 257° |
| 2026-04-17 12:03 | 34.97589 | 134.62681 | 30142 ft | 376 kts | 253° |
| 2026-04-17 12:04 | 34.95971 | 134.56613 | 30150 ft | 377 kts | 253° |
| 2026-04-17 12:04 | 34.94361 | 134.50537 | 30139 ft | 376 kts | 254° |
| 2026-04-17 12:05 | 34.92769 | 134.44464 | 30144 ft | 376 kts | 254° |
| 2026-04-17 12:05 | 34.91183 | 134.38393 | 30159 ft | 376 kts | 254° |
| 2026-04-17 12:06 | 34.89599 | 134.32323 | 30158 ft | 376 kts | 254° |
| 2026-04-17 12:06 | 34.88012 | 134.26263 | 30132 ft | 375 kts | 254° |
| 2026-04-17 12:07 | 34.86428 | 134.20222 | 30150 ft | 374 kts | 254° |
| 2026-04-17 12:07 | 34.84842 | 134.14184 | 30110 ft | 374 kts | 254° |
| 2026-04-17 12:08 | 34.83263 | 134.08192 | 30120 ft | 375 kts | 254° |
| 2026-04-17 12:08 | 34.81668 | 134.02157 | 30127 ft | 374 kts | 254° |
| 2026-04-17 12:09 | 34.80072 | 133.96127 | 30102 ft | 374 kts | 254° |
| 2026-04-17 12:09 | 34.78472 | 133.90097 | 30093 ft | 375 kts | 254° |
| 2026-04-17 12:10 | 34.76870 | 133.84079 | 30109 ft | 373 kts | 254° |
| 2026-04-17 12:10 | 34.75269 | 133.78061 | 30108 ft | 374 kts | 254° |
| 2026-04-17 12:11 | 34.73662 | 133.72047 | 30082 ft | 374 kts | 254° |
| 2026-04-17 12:12 | 34.71254 | 133.63057 | 30126 ft | 372 kts | 254° |
| 2026-04-17 12:12 | 34.69646 | 133.57070 | 30108 ft | 373 kts | 254° |
| 2026-04-17 12:13 | 34.68034 | 133.51082 | 30113 ft | 373 kts | 254° |
| 2026-04-17 12:13 | 34.66421 | 133.45101 | 30101 ft | 372 kts | 254° |
| 2026-04-17 12:14 | 34.64805 | 133.39125 | 30108 ft | 372 kts | 254° |
| 2026-04-17 12:14 | 34.63198 | 133.33183 | 30111 ft | 370 kts | 254° |
| 2026-04-17 12:15 | 34.61580 | 133.27238 | 30115 ft | 372 kts | 254° |
| 2026-04-17 12:15 | 34.59960 | 133.21281 | 30105 ft | 372 kts | 254° |
| 2026-04-17 12:16 | 34.58335 | 133.15316 | 30097 ft | 373 kts | 254° |
| 2026-04-17 12:16 | 34.56712 | 133.09381 | 30109 ft | 373 kts | 253° |
| 2026-04-17 12:17 | 34.55077 | 133.03411 | 30103 ft | 373 kts | 253° |
| 2026-04-17 12:17 | 34.53442 | 132.97455 | 30104 ft | 371 kts | 254° |
| 2026-04-17 12:18 | 34.51812 | 132.91527 | 30109 ft | 370 kts | 254° |
| 2026-04-17 12:18 | 34.50182 | 132.85616 | 30104 ft | 369 kts | 253° |
| 2026-04-17 12:19 | 34.48553 | 132.79712 | 30106 ft | 369 kts | 253° |
| 2026-04-17 12:19 | 34.46916 | 132.73801 | 30101 ft | 371 kts | 253° |
| 2026-04-17 12:20 | 34.45272 | 132.67886 | 30064 ft | 371 kts | 253° |
| 2026-04-17 12:20 | 34.43624 | 132.61970 | 30083 ft | 371 kts | 253° |
| 2026-04-17 12:21 | 34.41971 | 132.56050 | 30113 ft | 371 kts | 253° |
| 2026-04-17 12:21 | 34.40312 | 132.50126 | 30099 ft | 372 kts | 253° |
| 2026-04-17 12:22 | 34.38650 | 132.44189 | 30096 ft | 372 kts | 253° |
| 2026-04-17 12:22 | 34.36986 | 132.38257 | 30101 ft | 372 kts | 253° |
| 2026-04-17 12:23 | 34.35320 | 132.32337 | 30107 ft | 371 kts | 253° |
| 2026-04-17 12:23 | 34.33662 | 132.26455 | 30114 ft | 373 kts | 253° |
| 2026-04-17 12:24 | 34.31986 | 132.20524 | 30103 ft | 372 kts | 253° |
| 2026-04-17 12:24 | 34.30312 | 132.14613 | 30108 ft | 371 kts | 253° |
| 2026-04-17 12:25 | 34.28637 | 132.08709 | 30108 ft | 370 kts | 253° |
| 2026-04-17 12:25 | 34.26965 | 132.02825 | 30096 ft | 370 kts | 253° |
| 2026-04-17 12:26 | 34.25285 | 131.96932 | 30101 ft | 371 kts | 253° |
| 2026-04-17 12:26 | 34.23602 | 131.91039 | 30085 ft | 371 kts | 253° |
| 2026-04-17 12:27 | 34.21915 | 131.85142 | 30070 ft | 371 kts | 253° |
| 2026-04-17 12:27 | 34.20227 | 131.79253 | 30073 ft | 371 kts | 253° |
| 2026-04-17 12:28 | 34.18538 | 131.73371 | 30087 ft | 371 kts | 253° |
| 2026-04-17 12:28 | 34.16844 | 131.67484 | 30076 ft | 371 kts | 253° |
| 2026-04-17 12:29 | 34.15145 | 131.61595 | 30087 ft | 372 kts | 252° |
| 2026-04-17 12:29 | 34.13442 | 131.55704 | 30072 ft | 371 kts | 252° |
| 2026-04-17 12:30 | 34.11738 | 131.49816 | 30048 ft | 372 kts | 252° |
| 2026-04-17 12:30 | 34.10032 | 131.43939 | 30067 ft | 371 kts | 252° |
| 2026-04-17 12:31 | 34.08323 | 131.38059 | 30052 ft | 371 kts | 252° |
| 2026-04-17 12:31 | 34.06600 | 131.32184 | 30064 ft | 372 kts | 251° |
| 2026-04-17 12:32 | 34.04361 | 131.26541 | 30041 ft | 374 kts | 246° |
| 2026-04-17 12:32 | 34.02007 | 131.20963 | 30056 ft | 373 kts | 246° |
| 2026-04-17 12:33 | 33.99663 | 131.15369 | 30047 ft | 374 kts | 246° |
| 2026-04-17 12:33 | 33.97320 | 131.09754 | 30052 ft | 376 kts | 246° |
| 2026-04-17 12:34 | 33.94986 | 131.04172 | 30030 ft | 374 kts | 246° |
| 2026-04-17 12:34 | 33.92656 | 130.98589 | 30040 ft | 372 kts | 246° |
| 2026-04-17 12:35 | 33.90332 | 130.93020 | 30048 ft | 372 kts | 246° |
| 2026-04-17 12:35 | 33.88016 | 130.87479 | 29715 ft | 368 kts | 246° |
| 2026-04-17 12:35 | 33.86878 | 130.84762 | 29263 ft | 362 kts | 246° |
| 2026-04-17 12:37 | 33.79641 | 130.67518 | 25730 ft | 337 kts | 245° |
| 2026-04-17 12:37 | 33.78586 | 130.65008 | 25199 ft | 336 kts | 245° |
| 2026-04-17 12:38 | 33.77534 | 130.62507 | 24651 ft | 335 kts | 245° |
| 2026-04-17 12:38 | 33.76482 | 130.60010 | 24115 ft | 335 kts | 245° |
| 2026-04-17 12:38 | 33.75430 | 130.57515 | 23548 ft | 335 kts | 245° |
| 2026-04-17 12:38 | 33.74377 | 130.55023 | 22974 ft | 334 kts | 245° |
| 2026-04-17 12:39 | 33.73330 | 130.52542 | 22411 ft | 332 kts | 245° |
| 2026-04-17 12:39 | 33.72287 | 130.50072 | 21870 ft | 331 kts | 245° |
| 2026-04-17 12:39 | 33.71249 | 130.47616 | 21345 ft | 329 kts | 245° |
| 2026-04-17 12:39 | 33.70216 | 130.45178 | 20841 ft | 327 kts | 245° |
| 2026-04-17 12:40 | 33.69187 | 130.42751 | 20319 ft | 325 kts | 244° |
| 2026-04-17 12:40 | 33.67936 | 130.40484 | 19786 ft | 328 kts | 232° |
| 2026-04-17 12:40 | 33.66323 | 130.38538 | 19195 ft | 332 kts | 224° |
| 2026-04-17 12:40 | 33.64397 | 130.36945 | 18611 ft | 339 kts | 213° |
| 2026-04-17 12:41 | 33.62308 | 130.35621 | 18027 ft | 340 kts | 211° |
| 2026-04-17 12:41 | 33.60194 | 130.34345 | 17476 ft | 339 kts | 211° |
| 2026-04-17 12:41 | 33.58097 | 130.33089 | 16954 ft | 336 kts | 211° |
| 2026-04-17 12:41 | 33.56016 | 130.31835 | 16444 ft | 333 kts | 211° |
| 2026-04-17 12:42 | 33.53953 | 130.30583 | 15932 ft | 331 kts | 211° |
| 2026-04-17 12:42 | 33.51913 | 130.29337 | 15453 ft | 328 kts | 211° |
| 2026-04-17 12:42 | 33.49892 | 130.28100 | 14957 ft | 325 kts | 211° |
| 2026-04-17 12:42 | 33.47882 | 130.26868 | 14475 ft | 324 kts | 210° |
| 2026-04-17 12:43 | 33.45884 | 130.25640 | 13978 ft | 322 kts | 210° |
| 2026-04-17 12:43 | 33.43886 | 130.24413 | 13437 ft | 322 kts | 210° |
| 2026-04-17 12:43 | 33.41898 | 130.23192 | 12914 ft | 320 kts | 210° |
| 2026-04-17 12:43 | 33.39921 | 130.21980 | 12413 ft | 318 kts | 210° |
| 2026-04-17 12:44 | 33.37960 | 130.20778 | 11912 ft | 316 kts | 210° |
| 2026-04-17 12:44 | 33.36009 | 130.19584 | 11422 ft | 313 kts | 210° |
| 2026-04-17 12:44 | 33.34088 | 130.18407 | 11115 ft | 304 kts | 211° |
| 2026-04-17 12:44 | 33.32413 | 130.16971 | 10730 ft | 295 kts | 230° |
| 2026-04-17 12:45 | 33.31107 | 130.15128 | 10386 ft | 289 kts | 232° |
| 2026-04-17 12:45 | 33.29823 | 130.13294 | 10008 ft | 287 kts | 232° |
| 2026-04-17 12:45 | 33.28566 | 130.11513 | 9952 ft | 272 kts | 232° |
| 2026-04-17 12:45 | 33.27326 | 130.09816 | 9311 ft | 276 kts | 229° |
| 2026-04-17 12:46 | 33.26069 | 130.08093 | 8842 ft | 276 kts | 231° |
| 2026-04-17 12:46 | 33.24839 | 130.06341 | 8437 ft | 274 kts | 231° |
| 2026-04-17 12:46 | 33.23615 | 130.04599 | 8035 ft | 272 kts | 231° |
| 2026-04-17 12:46 | 33.22390 | 130.02890 | 7669 ft | 270 kts | 230° |
| 2026-04-17 12:47 | 33.21171 | 130.01205 | 7302 ft | 267 kts | 230° |
| 2026-04-17 12:47 | 33.19969 | 129.99540 | 6907 ft | 261 kts | 230° |
| 2026-04-17 12:47 | 33.18808 | 129.97932 | 6547 ft | 251 kts | 229° |
| 2026-04-17 12:47 | 33.17692 | 129.96387 | 6173 ft | 240 kts | 228° |
| 2026-04-17 12:48 | 33.16603 | 129.94877 | 5607 ft | 236 kts | 227° |
| 2026-04-17 12:48 | 33.15553 | 129.93424 | 5213 ft | 225 kts | 226° |
| 2026-04-17 12:48 | 33.14565 | 129.92055 | 4890 ft | 211 kts | 225° |
| 2026-04-17 12:48 | 33.13641 | 129.90776 | 4597 ft | 197 kts | 224° |
| 2026-04-17 12:49 | 33.12761 | 129.89566 | 4314 ft | 189 kts | 224° |
| 2026-04-17 12:49 | 33.11918 | 129.88399 | 4044 ft | 182 kts | 223° |
| 2026-04-17 12:49 | 33.11111 | 129.87281 | 3872 ft | 171 kts | 223° |
| 2026-04-17 12:49 | 33.10365 | 129.86248 | 3780 ft | 162 kts | 222° |
| 2026-04-17 12:50 | 33.09620 | 129.85230 | 3631 ft | 166 kts | 221° |
| 2026-04-17 12:50 | 33.08868 | 129.84189 | 3365 ft | 166 kts | 222° |
| 2026-04-17 12:50 | 33.08117 | 129.83140 | 3016 ft | 166 kts | 223° |
| 2026-04-17 12:50 | 33.07386 | 129.82088 | 2702 ft | 166 kts | 223° |
| 2026-04-17 12:51 | 33.06624 | 129.81058 | 2420 ft | 165 kts | 219° |
| 2026-04-17 12:51 | 33.05791 | 129.80139 | 2091 ft | 159 kts | 212° |
| 2026-04-17 12:51 | 33.04915 | 129.79463 | 1924 ft | 141 kts | 199° |
| 2026-04-17 12:51 | 33.04034 | 129.79249 | 1705 ft | 120 kts | 167° |
| 2026-04-17 12:52 | 33.03268 | 129.79581 | 1606 ft | 117 kts | 152° |
| 2026-04-17 12:52 | 33.02552 | 129.80045 | 1543 ft | 117 kts | 150° |
| 2026-04-17 12:52 | 33.01848 | 129.80552 | 1501 ft | 119 kts | 146° |
| 2026-04-17 12:52 | 33.01179 | 129.81170 | 1469 ft | 125 kts | 138° |
| 2026-04-17 12:53 | 33.00567 | 129.81879 | 1463 ft | 122 kts | 136° |
| 2026-04-17 12:53 | 32.99937 | 129.82587 | 1483 ft | 124 kts | 138° |
| 2026-04-17 12:53 | 32.99314 | 129.83265 | 1482 ft | 122 kts | 138° |
| 2026-04-17 12:53 | 32.98672 | 129.83944 | 1478 ft | 124 kts | 139° |
| 2026-04-17 12:54 | 32.98012 | 129.84612 | 1315 ft | 125 kts | 141° |
| 2026-04-17 12:54 | 32.97332 | 129.85294 | 1099 ft | 129 kts | 140° |
| 2026-04-17 12:54 | 32.96679 | 129.86004 | 934 ft | 127 kts | 137° |
| 2026-04-17 12:54 | 32.96034 | 129.86726 | 820 ft | 129 kts | 139° |
| 2026-04-17 12:55 | 32.95352 | 129.87431 | 687 ft | 132 kts | 137° |
| 2026-04-17 12:55 | 32.94667 | 129.88180 | 564 ft | 134 kts | 139° |
| 2026-04-17 12:55 | 32.93966 | 129.88909 | 427 ft | 134 kts | 137° |
| 2026-04-17 12:55 | 32.93296 | 129.89644 | 221 ft | 129 kts | 139° |
| 2026-04-17 12:56 | 32.92631 | 129.90344 | 41 ft | 126 kts | 139° |
| 2026-04-17 12:56 | 32.92045 | 129.90966 | 15 ft | 89 kts | 138° |
| 2026-04-17 12:56 | 32.91749 | 129.91284 | 11 ft | 29 kts | 138° |
| 2026-04-17 12:56 | 32.91604 | 129.91438 | 12 ft | 27 kts | 138° |
| 2026-04-17 12:57 | 32.91562 | 129.91562 | 16 ft | 16 kts | 56° |
| 2026-04-17 12:57 | 32.91618 | 129.91663 | 13 ft | 14 kts | 79° |
| 2026-04-17 12:57 | 32.91576 | 129.91747 | 13 ft | 12 kts | 137° |
| 2026-04-17 12:57 | 32.91516 | 129.91812 | 12 ft | 12 kts | 138° |
| 2026-04-17 12:58 | 32.91453 | 129.91879 | 12 ft | 13 kts | 138° |
| 2026-04-17 12:58 | 32.91386 | 129.91950 | 13 ft | 13 kts | 138° |
| 2026-04-17 12:58 | 32.91313 | 129.92029 | 11 ft | 11 kts | 138° |
| 2026-04-17 12:58 | 32.91319 | 129.92110 | 10 ft | 12 kts | 49° |
| 2026-04-17 12:59 | 32.91365 | 129.92170 | 11 ft | 5 kts | 48° |
| 2026-04-17 12:59 | 32.91376 | 129.92185 | 12 ft | 0 kts | 47° |
| 2026-04-17 13:01 | 33.03349 | 129.79533 | 1622 ft | 117 kts | 153° |
| 2026-04-17 13:01 | 32.93641 | 129.89278 | 315 ft | 131 kts | 137° |